Accueil
METAR-TAF:

METAR-TAF

Aéroports :

Aéroport Halim-Perdanakusuma

East Jakarta, Indonésie

latitude: 06-15-59S, longitude: 106-53-28E, altitude: 25 m

Observation

Le bulletin a été fait il y a 40 minutes, à 03:30 UTC
Vent 4 kt de sud/sud-est
Température 31°C
Humidité 66%
Pression 1010 hPa
Visibilité: 4000 m
Nuages épars à une hauteur de 2000 ft
brume sèche,

METAR: WIHH 220330Z 15004KT 4000 HZ SCT020 31/24 Q1010 NOSIG METAR

Heure: 11:10 (04:10 UTC)

Prévision

Le bulletin a été fait il y a 5 heures et 10 minutes, à 23:00 UTC
Prévision valable du 22 à 00 UTC au 23 à 00 UTC
Vent 6 kt de sud/sud-est
Visibilité: 5000 m
Nuages épars à une hauteur de 2000 ft
brume sèche
Evoluant progressivement
du 22 à 06 UTC au 22 à 08 UTC
Vent 8 kt de nord/nord-est
Visibilité: 7000 m
Quelques nuages à une hauteur de 1800 ft

TAF: WIHH 212300Z 2200/2300 15006KT 5000 HZ SCT020 BECMG 2206/2208 03008KT 7000 FEW018

Observations et prévisions météorologiques de plus de 4000 aéroports (messages METAR et TAF).

Les stations disponibles sont représentées par des disques jaunes et rouges sur la carte.

Passer la souris dessus pour voir le nom de la station.

Cliquer dessus pour voir les observations et prévisions météorologiques.

Pour changer de carte: cliquez sur les boutons verts avec une croix noire pour zoomer, sur le bouton vert avec un tiret pour effectuer un zoom arrière, ou sur les flèches vertes pour les cartes adjacentes.


METAR-TAF: